createdAt,value
2023-01-17T00:03:58.488Z,97899.75
2023-01-17T00:09:20.463Z,97891.88
2023-01-17T00:14:23.880Z,97874.88
2023-01-17T00:19:46.029Z,97873.65
2023-01-17T00:25:08.079Z,97872.71
2023-01-17T00:30:12.108Z,97865.34
2023-01-17T00:35:16.138Z,97861.11
2023-01-17T00:40:19.352Z,97855.51
2023-01-17T00:45:41.337Z,97846.09
2023-01-17T00:51:03.304Z,97835.54
2023-01-17T00:56:26.728Z,97826.15
2023-01-17T01:01:49.260Z,97814.62
2023-01-17T01:07:11.744Z,97803.13
2023-01-17T01:12:33.689Z,97794.73
2023-01-17T01:17:55.644Z,97787.10
2023-01-17T01:23:17.580Z,97772.32
2023-01-17T01:28:39.529Z,97767.49
2023-01-17T01:33:43.045Z,97755.95
2023-01-17T01:38:46.571Z,97737.46
2023-01-17T01:43:56.322Z,97724.11
2023-01-17T01:49:05.329Z,97715.17
2023-01-17T01:54:14.512Z,97701.66
2023-01-17T01:59:20.558Z,97690.29
2023-01-17T02:04:25.833Z,97676.82
2023-01-17T02:09:29.053Z,97670.04
2023-01-17T02:14:32.169Z,97663.64
2023-01-17T02:20:23.492Z,97674.55
2023-01-17T02:26:04.282Z,97671.30
2023-01-17T02:31:37.910Z,97666.86
2023-01-17T02:36:56.137Z,97668.04
2023-01-17T02:42:06.560Z,97664.48
2023-01-17T02:47:36.075Z,97659.11
2023-01-17T02:53:09.686Z,97655.88
2023-01-17T02:58:24.462Z,97651.80
2023-01-17T03:03:44.774Z,97645.29
2023-01-17T03:08:50.749Z,97624.65
2023-01-17T03:13:58.194Z,97620.75
2023-01-17T03:19:01.373Z,97612.95
2023-01-17T03:24:04.671Z,97600.42
2023-01-17T03:29:07.884Z,97596.20
2023-01-17T03:34:11.296Z,97593.44
2023-01-17T03:39:14.600Z,97591.98
2023-01-17T03:44:17.917Z,97581.39
2023-01-17T03:49:21.122Z,97564.30
2023-01-17T03:54:24.326Z,97568.49
2023-01-17T03:59:27.538Z,97568.06
2023-01-17T04:04:30.746Z,97572.11
2023-01-17T04:09:34.871Z,97565.13
2023-01-17T04:14:37.897Z,97551.08
2023-01-17T04:19:41.501Z,97533.64
2023-01-17T04:24:44.697Z,97537.31
2023-01-17T04:29:48.024Z,97548.81
2023-01-17T04:34:51.423Z,97545.43
2023-01-17T04:39:54.528Z,97552.09
2023-01-17T04:44:57.734Z,97547.91
2023-01-17T04:50:01.068Z,97541.55
2023-01-17T04:55:05.549Z,97543.34
2023-01-17T05:00:09.816Z,97540.03
2023-01-17T05:05:13.717Z,97529.66
2023-01-17T05:10:17.665Z,97522.23
2023-01-17T05:15:20.983Z,97519.31
2023-01-17T05:20:26.233Z,97519.93
2023-01-17T05:25:32.270Z,97519.04
2023-01-17T05:30:35.466Z,97517.80
2023-01-17T05:35:38.735Z,97509.31
2023-01-17T05:40:42.132Z,97507.03
2023-01-17T05:45:48.006Z,97510.20
2023-01-17T05:50:52.485Z,97514.92
2023-01-17T05:55:55.856Z,97511.19
2023-01-17T06:00:59.581Z,97511.86
2023-01-17T06:06:02.899Z,97519.13
2023-01-17T06:11:06.771Z,97524.62
2023-01-17T06:16:10.277Z,97521.88
2023-01-17T06:21:13.530Z,97524.34
2023-01-17T06:26:16.852Z,97522.69
2023-01-17T06:31:20.220Z,97518.15
2023-01-17T06:36:24.690Z,97516.19
2023-01-17T06:41:28.007Z,97521.74
2023-01-17T06:46:31.143Z,97525.38
2023-01-17T06:51:34.324Z,97528.71
2023-01-17T06:56:37.770Z,97529.23
2023-01-17T07:01:41.831Z,97540.04
2023-01-17T07:06:45.270Z,97548.73
2023-01-17T07:11:48.482Z,97545.09
2023-01-17T07:16:52.195Z,97539.34
2023-01-17T07:21:55.411Z,97536.41
2023-01-17T07:26:58.919Z,97535.36
2023-01-17T07:32:03.460Z,97535.65
2023-01-17T07:37:06.879Z,97543.25
2023-01-17T07:42:10.081Z,97552.30
2023-01-17T07:47:13.196Z,97548.91
2023-01-17T07:52:18.130Z,97540.86
2023-01-17T07:57:21.557Z,97538.55
2023-01-17T08:02:24.755Z,97539.89
2023-01-17T08:07:27.861Z,97534.15
2023-01-17T08:12:31.171Z,97532.04
2023-01-17T08:17:35.092Z,97533.34
2023-01-17T08:22:38.627Z,97536.69
2023-01-17T08:27:41.864Z,97542.91
2023-01-17T08:32:44.922Z,97550.98
2023-01-17T08:37:49.322Z,97561.24
2023-01-17T08:42:57.218Z,97562.92
2023-01-17T08:48:01.625Z,97555.88
2023-01-17T08:53:05.032Z,97555.36
2023-01-17T08:58:08.443Z,97553.70
2023-01-17T09:03:14.642Z,97548.12
2023-01-17T09:08:17.924Z,97554.21
2023-01-17T09:13:22.675Z,97564.19
2023-01-17T09:18:27.221Z,97578.30
2023-01-17T09:23:30.623Z,97586.11
2023-01-17T09:28:41.303Z,97584.25
2023-01-17T09:33:45.050Z,97583.64
2023-01-17T09:38:48.551Z,97580.89
2023-01-17T09:44:23.490Z,97579.92
2023-01-17T09:49:35.718Z,97574.23
2023-01-17T09:54:42.457Z,97561.86
2023-01-17T10:00:39.059Z,97560.87
2023-01-17T10:06:05.009Z,97561.25
2023-01-17T10:11:17.076Z,97557.70
2023-01-17T10:16:53.137Z,97557.68
2023-01-17T10:22:02.547Z,97547.77
2023-01-17T10:27:34.430Z,97550.27
2023-01-17T10:32:49.790Z,97557.15
2023-01-17T10:37:57.056Z,97555.23
2023-01-17T10:43:24.911Z,97561.17
2023-01-17T10:48:47.783Z,97564.83
2023-01-17T10:54:06.243Z,97571.65
2023-01-17T10:59:17.686Z,97572.05
2023-01-17T11:04:31.092Z,97575.90
2023-01-17T11:09:42.609Z,97579.50
2023-01-17T11:15:18.171Z,97581.09
2023-01-17T11:20:41.275Z,97575.98
2023-01-17T11:25:55.212Z,97568.63
2023-01-17T11:31:01.238Z,97561.55
2023-01-17T11:36:05.038Z,97565.85
2023-01-17T11:41:29.308Z,97563.50
2023-01-17T11:46:33.468Z,97565.25
2023-01-17T11:51:42.560Z,97567.64
2023-01-17T11:56:46.697Z,97571.98
2023-01-17T12:02:05.277Z,97578.48
2023-01-17T12:07:13.180Z,97577.91
2023-01-17T12:13:02.168Z,97571.18
2023-01-17T12:18:26.671Z,97572.00
2023-01-17T12:23:59.271Z,97575.65
2023-01-17T12:29:29.111Z,97572.77
2023-01-17T12:34:51.658Z,97571.73
2023-01-17T12:40:00.905Z,97576.98
2023-01-17T12:45:15.876Z,97586.60
2023-01-17T12:50:29.035Z,97585.88
2023-01-17T12:56:02.669Z,97591.08
2023-01-17T13:01:18.839Z,97596.84
2023-01-17T13:06:36.533Z,97609.12
2023-01-17T13:12:08.190Z,97613.66
2023-01-17T13:17:46.622Z,97619.84
2023-01-17T13:22:52.184Z,97624.16
2023-01-17T13:28:05.744Z,97627.73
2023-01-17T13:33:09.086Z,97635.88
2023-01-17T13:38:55.171Z,97643.75
2023-01-17T13:44:20.124Z,97650.72
2023-01-17T13:49:29.330Z,97656.43
2023-01-17T13:54:34.583Z,97667.52
2023-01-17T13:59:37.691Z,97678.09
2023-01-17T14:05:00.246Z,97678.23
2023-01-17T14:10:36.954Z,97679.96
2023-01-17T14:15:50.923Z,97681.59
2023-01-17T14:21:10.956Z,97679.45
2023-01-17T14:26:21.602Z,97686.77
2023-01-17T14:31:26.821Z,97690.91
2023-01-17T14:36:33.322Z,97696.52
2023-01-17T14:41:36.532Z,97698.25
2023-01-17T14:46:40.233Z,97704.41
2023-01-17T14:51:43.478Z,97715.71
2023-01-17T14:56:48.399Z,97722.85
2023-01-17T15:02:06.667Z,97728.52
2023-01-17T15:07:16.910Z,97739.84
2023-01-17T15:12:20.359Z,97745.25
2023-01-17T15:17:25.108Z,97752.83
2023-01-17T15:22:29.979Z,97760.95
2023-01-17T15:27:33.869Z,97769.07
2023-01-17T15:32:39.177Z,97787.76
2023-01-17T15:37:42.347Z,97792.45
2023-01-17T15:42:51.791Z,97795.52
2023-01-17T15:47:55.485Z,97802.73
2023-01-17T15:53:03.846Z,97802.25
2023-01-17T15:58:29.039Z,97810.05
2023-01-17T16:03:32.476Z,97806.43
2023-01-17T16:08:39.311Z,97805.92
2023-01-17T16:13:43.580Z,97805.36
2023-01-17T16:18:48.653Z,97803.93
2023-01-17T16:23:52.576Z,97813.55
2023-01-17T16:28:56.501Z,97818.51
2023-01-17T16:34:00.735Z,97825.94
2023-01-17T16:39:05.043Z,97839.33
2023-01-17T16:44:10.116Z,97848.08
2023-01-17T16:49:14.766Z,97852.39
2023-01-17T16:54:18.889Z,97858.45
2023-01-17T16:59:23.059Z,97858.63
2023-01-17T17:04:28.173Z,97860.66
2023-01-17T17:09:31.884Z,97868.39
2023-01-17T17:14:36.223Z,97876.36
2023-01-17T17:19:39.653Z,97883.81
2023-01-17T17:24:43.267Z,97883.26
2023-01-17T17:29:46.569Z,97882.01
2023-01-17T17:34:53.467Z,97885.06
2023-01-17T17:39:58.149Z,97890.66
2023-01-17T17:45:01.823Z,97893.66
2023-01-17T17:50:08.719Z,97898.41
2023-01-17T17:55:14.951Z,97905.94
2023-01-17T18:00:19.683Z,97903.10
2023-01-17T18:05:25.200Z,97902.60
2023-01-17T18:10:28.515Z,97898.96
2023-01-17T18:15:32.027Z,97891.80
2023-01-17T18:20:35.644Z,97892.51
2023-01-17T18:25:39.776Z,97891.46
2023-01-17T18:30:43.697Z,97898.45
2023-01-17T18:35:58.772Z,97903.95
2023-01-17T18:41:04.503Z,97911.88
2023-01-17T18:46:10.770Z,97916.28
2023-01-17T18:51:17.878Z,97927.41
2023-01-17T18:56:23.388Z,97932.48
2023-01-17T19:01:33.728Z,97942.82
2023-01-17T19:06:41.638Z,97950.39
2023-01-17T19:11:46.537Z,97956.79
2023-01-17T19:16:50.066Z,97962.95
2023-01-17T19:21:54.332Z,97964.81
2023-01-17T19:26:57.897Z,97976.31
2023-01-17T19:32:01.417Z,97985.86
2023-01-17T19:37:06.529Z,97983.86
2023-01-17T19:42:15.757Z,97985.84
2023-01-17T19:47:19.234Z,97995.11
2023-01-17T19:52:24.502Z,98004.69
2023-01-17T19:57:34.887Z,98004.54
2023-01-17T20:02:39.133Z,98003.80
2023-01-17T20:07:42.512Z,98010.89
2023-01-17T20:12:46.031Z,98023.43
2023-01-17T20:17:49.440Z,98036.30
2023-01-17T20:22:52.958Z,98047.38
2023-01-17T20:27:58.250Z,98061.77
2023-01-17T20:33:02.241Z,98076.29
2023-01-17T20:38:10.870Z,98081.65
2023-01-17T20:43:14.901Z,98096.11
2023-01-17T20:48:18.224Z,98110.03
2023-01-17T20:53:22.544Z,98122.63
2023-01-17T20:58:26.060Z,98126.16
2023-01-17T21:03:29.774Z,98130.46
2023-01-17T21:08:36.164Z,98143.20
2023-01-17T21:13:40.497Z,98153.05
2023-01-17T21:18:47.858Z,98155.50
2023-01-17T21:23:53.735Z,98153.96
2023-01-17T21:29:00.450Z,98149.05
2023-01-17T21:34:06.750Z,98151.67
2023-01-17T21:39:18.987Z,98166.55
2023-01-17T21:44:23.928Z,98172.20
2023-01-17T21:49:27.043Z,98167.21
2023-01-17T21:54:49.790Z,98163.73
2023-01-17T21:59:52.992Z,98156.33
2023-01-17T22:04:56.619Z,98157.02
2023-01-17T22:09:59.726Z,98170.26
2023-01-17T22:15:06.819Z,98179.20
2023-01-17T22:20:12.070Z,98182.83
2023-01-17T22:25:15.483Z,98185.03
2023-01-17T22:30:19.877Z,98188.30
2023-01-17T22:35:24.155Z,98196.40
2023-01-17T22:40:28.356Z,98205.29
2023-01-17T22:45:31.799Z,98205.95
2023-01-17T22:50:35.120Z,98199.64
2023-01-17T22:55:38.521Z,98198.75
2023-01-17T23:00:41.834Z,98197.93
2023-01-17T23:05:47.102Z,98208.55
2023-01-17T23:11:09.133Z,98214.91
2023-01-17T23:16:31.299Z,98209.60
2023-01-17T23:21:54.466Z,98205.91
2023-01-17T23:27:16.312Z,98209.18
2023-01-17T23:32:19.620Z,98204.04
2023-01-17T23:37:47.405Z,98202.13
2023-01-17T23:43:09.559Z,98213.62
2023-01-17T23:48:12.970Z,98215.41
2023-01-17T23:53:23.563Z,98209.91
2023-01-17T23:58:28.293Z,98211.05
